Thomson Majesty — 9HA2188 — position and weather

sailwx.info

Track history (hours):
 
Tides and Currents Weather Stations Pressure Air Temp Water Temp Dewpoint Dewpoint Depression Visibility Wind Speed Wind Dir Waves Ship Positions

Thomson Majesty

Last reported at 2015-Jul-01 01:13 UTC. Time now 2015-Jul-01 04:55 UTC.
Position N 35°60' E 024°26'.

Length 207 m; draft 6.2 m.

Type: Ship. MMSI: 248124000.

Date/timePositionNaut miles runAvg speedWind from/ knotsBaromVisibWave heightAir tempDewpointWater temp
2015-Jul-01 01:13N 35°60' E 024°26'811.7
2015-Jul-01 00:32N 36°07' E 024°29'8411.6
2015-Jun-30 17:17N 37°25' E 023°47'911.7
2015-Jun-30 16:33N 37°33' E 023°45'1211.7
2015-Jun-30 15:33N 37°44' E 023°40'1111.5
2015-Jun-30 14:33N 37°55' E 023°36'2 1.8
2015-Jun-30 13:31N 37°56' E 023°38'0 0.0
2015-Jun-30 12:31N 37°56' E 023°38'0 0.0
2015-Jun-30 11:28N 37°56' E 023°38'0 0.0
2015-Jun-30 10:31N 37°56' E 023°38'0 0.0
2015-Jun-30 09:31N 37°56' E 023°38'0 0.0
2015-Jun-30 08:31N 37°56' E 023°38'0 0.0
2015-Jun-30 07:31N 37°56' E 023°38'0 0.0
2015-Jun-30 06:31N 37°56' E 023°38'0 0.0
2015-Jun-30 05:31N 37°56' E 023°38'0 0.0
2015-Jun-30 04:31N 37°56' E 023°38'0 0.0
2015-Jun-30 03:33N 37°56' E 023°38'1010.4
2015-Jun-30 02:33N 37°46' E 023°42'1716.5
2015-Jun-30 01:33N 37°35' E 023°57'3717.1
2015-Jun-29 23:23N 37°32' E 024°44'1214.7
2015-Jun-29 22:34N 37°32' E 024°59'1413.9
2015-Jun-29 21:33N 37°31' E 025°17'1717.2
2015-Jun-29 20:33N 37°35' E 025°38'1515.2
2015-Jun-29 19:34N 37°40' E 025°56'1212.0
2015-Jun-29 18:33N 37°43' E 026°11'1211.9
2015-Jun-29 17:33N 37°46' E 026°25'1412.2
2015-Jun-29 16:23N 37°50' E 026°43'16 0.9
2015-Jun-28 23:29N 37°46' E 026°23'20 9.4
2015-Jun-28 21:20N 37°30' E 026°08'810.6
2015-Jun-28 20:32N 37°28' E 025°58'1111.3
2015-Jun-28 19:33N 37°25' E 025°44'1111.6
2015-Jun-28 18:33N 37°22' E 025°30'1111.1
2015-Jun-28 17:33N 37°20' E 025°17'8 8.3
2015-Jun-28 16:33N 37°27' E 025°11'7 6.9
2015-Jun-28 15:32N 37°27' E 025°20'0 0.0
2015-Jun-28 14:32N 37°27' E 025°19'0 0.0
2015-Jun-28 13:32N 37°27' E 025°19'0 0.0
2015-Jun-28 12:32N 37°27' E 025°19'0 0.0
2015-Jun-28 11:32N 37°27' E 025°19'0 0.0
2015-Jun-28 10:32N 37°27' E 025°19'0 0.0
2015-Jun-28 09:32N 37°27' E 025°19'0 0.0
2015-Jun-28 08:32N 37°27' E 025°19'0 0.0
2015-Jun-28 07:32N 37°27' E 025°19'0 0.0
2015-Jun-28 06:32N 37°27' E 025°19'0 0.0
2015-Jun-28 05:32N 37°27' E 025°19'0 0.0
2015-Jun-28 04:33N 37°27' E 025°20'2 1.7
2015-Jun-28 03:33N 37°27' E 025°17'1414.3
2015-Jun-28 02:33N 37°20' E 025°02'1716.8
2015-Jun-28 01:33N 37°10' E 024°45'  
2015-Jun-25 18:20N 41°41' E 018°45'1317.1
2015-Jun-25 17:34N 41°53' E 018°41'1716.7
2015-Jun-25 16:34N 42°10' E 018°37'1716.5
2015-Jun-25 15:33N 42°26' E 018°33'8 7.6
2015-Jun-25 14:33N 42°29' E 018°43'3 0.3
2015-Jun-25 04:34N 42°26' E 018°46'7 6.8
2015-Jun-25 03:33N 42°26' E 018°36'10 9.6
2015-Jun-25 02:34N 42°22' E 018°24'1414.0
2015-Jun-25 01:33N 42°20' E 018°05'1 0.5
2015-Jun-25 00:33N 42°20' E 018°06'1 0.8
2015-Jun-24 23:33N 42°20' E 018°07'1 1.2
2015-Jun-24 22:33N 42°20' E 018°09'2 2.2
2015-Jun-24 21:33N 42°20' E 018°12'4 4.2
2015-Jun-24 20:34N 42°23' E 018°16'1 0.6
2015-Jun-24 19:33N 42°24' E 018°16'2 1.6
2015-Jun-24 18:33N 42°25' E 018°17'1111.3
2015-Jun-24 17:33N 42°34' E 018°07'12 0.9
2015-Jun-24 04:33N 42°37' E 017°52'1212.1
2015-Jun-24 03:33N 42°35' E 017°36'1210.9
2015-Jun-24 02:26N 42°33' E 017°19'  
Track history (hours):
 
Tides and Currents Weather Stations Pressure Air Temp Water Temp Dewpoint Dewpoint Depression Visibility Wind Speed Wind Dir Waves Ship Positions

Thomson Majesty

Last reported at 2015-Jul-01 01:13 UTC. Time now 2015-Jul-01 04:55 UTC.
Position N 35°60' E 024°26'.

Length 207 m; draft 6.2 m.

Type: Ship. MMSI: 248124000.

Date/timePositionNaut miles runAvg speedWind from/ knotsBaromVisibWave heightAir tempDewpointWater temp
2015-Jul-01 01:13N 35°60' E 024°26'811.7
2015-Jul-01 00:32N 36°07' E 024°29'8411.6
2015-Jun-30 17:17N 37°25' E 023°47'911.7
2015-Jun-30 16:33N 37°33' E 023°45'1211.7
2015-Jun-30 15:33N 37°44' E 023°40'1111.5
2015-Jun-30 14:33N 37°55' E 023°36'2 1.8
2015-Jun-30 13:31N 37°56' E 023°38'0 0.0
2015-Jun-30 12:31N 37°56' E 023°38'0 0.0
2015-Jun-30 11:28N 37°56' E 023°38'0 0.0
2015-Jun-30 10:31N 37°56' E 023°38'0 0.0
2015-Jun-30 09:31N 37°56' E 023°38'0 0.0
2015-Jun-30 08:31N 37°56' E 023°38'0 0.0
2015-Jun-30 07:31N 37°56' E 023°38'0 0.0
2015-Jun-30 06:31N 37°56' E 023°38'0 0.0
2015-Jun-30 05:31N 37°56' E 023°38'0 0.0
2015-Jun-30 04:31N 37°56' E 023°38'0 0.0
2015-Jun-30 03:33N 37°56' E 023°38'1010.4
2015-Jun-30 02:33N 37°46' E 023°42'1716.5
2015-Jun-30 01:33N 37°35' E 023°57'3717.1
2015-Jun-29 23:23N 37°32' E 024°44'1214.7
2015-Jun-29 22:34N 37°32' E 024°59'1413.9
2015-Jun-29 21:33N 37°31' E 025°17'1717.2
2015-Jun-29 20:33N 37°35' E 025°38'1515.2
2015-Jun-29 19:34N 37°40' E 025°56'1212.0
2015-Jun-29 18:33N 37°43' E 026°11'1211.9
2015-Jun-29 17:33N 37°46' E 026°25'1412.2
2015-Jun-29 16:23N 37°50' E 026°43'16 0.9
2015-Jun-28 23:29N 37°46' E 026°23'20 9.4
2015-Jun-28 21:20N 37°30' E 026°08'810.6
2015-Jun-28 20:32N 37°28' E 025°58'1111.3
2015-Jun-28 19:33N 37°25' E 025°44'1111.6
2015-Jun-28 18:33N 37°22' E 025°30'1111.1
2015-Jun-28 17:33N 37°20' E 025°17'8 8.3
2015-Jun-28 16:33N 37°27' E 025°11'7 6.9
2015-Jun-28 15:32N 37°27' E 025°20'0 0.0
2015-Jun-28 14:32N 37°27' E 025°19'0 0.0
2015-Jun-28 13:32N 37°27' E 025°19'0 0.0
2015-Jun-28 12:32N 37°27' E 025°19'0 0.0
2015-Jun-28 11:32N 37°27' E 025°19'0 0.0
2015-Jun-28 10:32N 37°27' E 025°19'0 0.0
2015-Jun-28 09:32N 37°27' E 025°19'0 0.0
2015-Jun-28 08:32N 37°27' E 025°19'0 0.0
2015-Jun-28 07:32N 37°27' E 025°19'0 0.0
2015-Jun-28 06:32N 37°27' E 025°19'0 0.0
2015-Jun-28 05:32N 37°27' E 025°19'0 0.0
2015-Jun-28 04:33N 37°27' E 025°20'2 1.7
2015-Jun-28 03:33N 37°27' E 025°17'1414.3
2015-Jun-28 02:33N 37°20' E 025°02'1716.8
2015-Jun-28 01:33N 37°10' E 024°45'  
2015-Jun-25 18:20N 41°41' E 018°45'1317.1
2015-Jun-25 17:34N 41°53' E 018°41'1716.7
2015-Jun-25 16:34N 42°10' E 018°37'1716.5
2015-Jun-25 15:33N 42°26' E 018°33'8 7.6
2015-Jun-25 14:33N 42°29' E 018°43'3 0.3
2015-Jun-25 04:34N 42°26' E 018°46'7 6.8
2015-Jun-25 03:33N 42°26' E 018°36'10 9.6
2015-Jun-25 02:34N 42°22' E 018°24'1414.0
2015-Jun-25 01:33N 42°20' E 018°05'1 0.5
2015-Jun-25 00:33N 42°20' E 018°06'1 0.8
2015-Jun-24 23:33N 42°20' E 018°07'1 1.2
2015-Jun-24 22:33N 42°20' E 018°09'2 2.2
2015-Jun-24 21:33N 42°20' E 018°12'4 4.2
2015-Jun-24 20:34N 42°23' E 018°16'1 0.6
2015-Jun-24 19:33N 42°24' E 018°16'2 1.6
2015-Jun-24 18:33N 42°25' E 018°17'1111.3
2015-Jun-24 17:33N 42°34' E 018°07'12 0.9
2015-Jun-24 04:33N 42°37' E 017°52'1212.1
2015-Jun-24 03:33N 42°35' E 017°36'1210.9
2015-Jun-24 02:26N 42°33' E 017°19'  

Dump ship's entire track history